Preview of NWS' New Version of Forecast
This preview is not operational and should not be used for support decisions.

Terminal Aerodrome Forecast (TAF)

Issued by National Weather Service (NWS)

                            
000
FTUS42 KKEY 262101 AAB
TAFEYW
TAF AMD
KEYW 262101Z 2621/2718 14023G28KT P6SM -RA VCSH SCT020 BKN030
      OVC060
      TEMPO 2621/2624 1SM +SHRA BKN010 OVC020
     FM270000 15025G34KT 3SM RA VCTS SCT010 OVC020CB
     FM270900 18030G39KT 5SM -RA SCT012 OVC025=